Time;durP1;ratioP1;P1;durP2;ratioP2;P2;SDS_P1;SDS_P2;PMS_P1;PMS_P2;Temp;Humidity;BMP_temperature;BMP_pressure;BME280_temperature;BME280_humidity;BME280_pressure;Samples;Min_cycle;Max_cycle;Signal;HPM_P1;HPM_P2
2023/05/05 00:01:02;;;;;;;;;13.67;13.33;;;;;11.13;85.04;100054.41;6309242;20;3521157;-55
2023/05/05 00:03:29;;;;;;;;;15.00;11.00;;;;;11.03;85.43;100050.50;6316168;20;2798202;-57
2023/05/05 00:05:57;;;;;;;;;11.00;9.50;;;;;10.83;86.34;100045.44;6283074;20;2785704;-57
2023/05/05 00:08:24;;;;;;;;;8.50;8.50;;;;;10.73;87.62;100043.25;6282070;20;2744380;-57
2023/05/05 00:10:53;;;;;;;;;12.67;10.33;;;;;10.91;86.51;100048.56;6279163;20;2794180;-56
2023/05/05 00:13:20;;;;;;;;;12.00;12.00;;;;;10.87;86.35;100047.84;6316426;20;2794082;-56
2023/05/05 00:15:51;;;;;;;;;15.00;12.00;;;;;10.45;86.91;100043.06;6281888;20;3521283;-57
2023/05/05 00:18:19;;;;;;;;;13.00;13.00;;;;;10.49;87.80;100037.44;6320162;20;2789277;-55
2023/05/05 00:20:48;;;;;;;;;14.33;12.33;;;;;10.44;88.56;100041.34;6280673;20;2791957;-57
2023/05/05 00:23:15;;;;;;;;;14.00;13.00;;;;;10.24;89.98;100045.06;6316790;20;2786744;-56
2023/05/05 00:25:43;;;;;;;;;14.00;13.00;;;;;10.21;90.65;100043.44;6282170;20;2782648;-56
2023/05/05 00:28:12;;;;;;;;;16.00;16.00;;;;;10.39;90.78;100046.09;6283356;20;3549279;-52
2023/05/05 00:30:41;;;;;;;;;16.67;15.00;;;;;10.04;90.97;100041.66;6278261;20;3550403;-56
2023/05/05 00:33:08;;;;;;;;;13.00;13.00;;;;;10.23;91.39;100043.34;6282848;20;2799214;-57
2023/05/05 00:35:36;;;;;;;;;15.50;13.00;;;;;10.15;90.29;100046.44;6281842;20;2790900;-54
2023/05/05 00:38:04;;;;;;;;;10.00;7.00;;;;;10.09;90.32;100041.44;6300040;20;1822837;-54
2023/05/05 00:40:32;;;;;;;;;13.67;13.00;;;;;10.29;89.20;100041.25;6310421;20;2787852;-54
2023/05/05 00:42:59;;;;;;;;;13.00;13.00;;;;;10.33;88.96;100037.44;6313112;20;2809654;-53
2023/05/05 00:45:29;;;;;;;;;14.33;12.33;;;;;10.30;89.15;100036.75;6279325;20;3517175;-56
2023/05/05 00:48:00;;;;;;;;;15.33;14.00;;;;;10.21;90.30;100038.06;6310936;20;3529441;-55
2023/05/05 00:50:30;;;;;;;;;18.00;15.00;;;;;10.21;89.92;100024.63;6310056;20;3540932;-53
2023/05/05 00:53:03;;;;;;;;;17.67;14.00;;;;;10.01;90.12;100035.63;6278071;20;3532671;-56
2023/05/05 00:55:33;;;;;;;;;15.33;15.33;;;;;9.93;89.84;100025.28;6311853;20;3548209;-54
2023/05/05 00:58:05;;;;;;;;;15.00;14.67;;;;;10.02;90.34;100022.09;6279278;20;3531600;-57
2023/05/05 01:00:33;;;;;;;;;13.67;13.67;;;;;9.81;91.46;100017.88;6278676;20;3548202;-56
2023/05/05 01:03:02;;;;;;;;;16.00;14.33;;;;;9.83;92.84;100022.22;6313263;20;3532690;-57
2023/05/05 01:06:02;;;;;;;;;15.00;14.00;;;;;9.89;92.84;100019.19;6308417;20;3533719;-57
2023/05/05 01:09:00;;;;;;;;;14.50;14.50;;;;;9.98;92.51;100008.94;6314553;20;2809787;-58
2023/05/05 01:12:07;;;;;;;;;16.50;14.00;;;;;9.79;93.87;100007.22;6285394;20;2818022;-58
2023/05/05 01:14:40;;;;;;;;;18.50;17.00;;;;;9.90;94.72;100006.69;6282556;20;3439878;-56
2023/05/05 01:17:19;;;;;;;;;18.50;16.00;;;;;9.78;94.90;100013.56;6313764;20;2820076;-56
2023/05/05 01:20:02;;;;;;;;;18.00;16.00;;;;;9.88;93.97;100013.94;6288012;20;2831544;-57
2023/05/05 01:22:58;;;;;;;;;16.00;15.33;;;;;9.99;93.85;100002.63;6283270;20;3535692;-57
2023/05/05 01:25:50;;;;;;;;;15.33;15.33;;;;;9.60;95.24;100003.78;6312513;20;3539862;-57
2023/05/05 01:29:02;;;;;;;;;19.00;14.33;;;;;9.79;94.84;100009.06;6314335;20;3552360;-54
2023/05/05 01:31:38;;;;;;;;;13.00;12.00;;;;;9.30;94.68;100001.78;6283395;20;2811079;-55
2023/05/05 01:34:08;;;;;;;;;13.50;13.50;;;;;9.22;96.00;99998.63;6286829;20;2817044;-55
2023/05/05 01:36:41;;;;;;;;;14.00;14.00;;;;;8.98;96.17;100001.59;6281977;20;3535869;-57
2023/05/05 01:39:15;;;;;;;;;12.00;12.00;;;;;9.11;95.22;100000.94;6317092;20;2791147;-55
2023/05/05 01:41:47;;;;;;;;;11.00;11.00;;;;;9.06;94.22;100000.31;6286201;20;2796175;-56
2023/05/05 01:44:18;;;;;;;;;14.33;13.00;;;;;8.95;94.61;100001.75;6313221;20;3529498;-58
2023/05/05 01:46:49;;;;;;;;;18.00;16.33;;;;;8.94;94.47;99997.31;6311884;20;3546205;-56
2023/05/05 01:49:17;;;;;;;;;13.67;13.67;;;;;8.71;95.18;99994.91;6315738;20;3528483;-57
2023/05/05 01:51:48;;;;;;;;;11.20;11.20;;;;;8.59;96.68;99993.72;6335355;20;2794035;-56
2023/05/05 01:54:18;;;;;;;;;14.67;13.00;;;;;8.73;96.74;100003.75;6280440;20;2808853;-58
2023/05/05 01:56:48;;;;;;;;;16.00;15.33;;;;;8.76;96.27;99996.41;6309639;20;3562794;-56
2023/05/05 01:59:19;;;;;;;;;17.00;13.00;;;;;8.86;96.29;99994.16;6314743;20;2825269;-55
2023/05/05 02:01:49;;;;;;;;;12.00;12.00;;;;;8.69;96.79;99994.09;6276551;20;3536818;-57
2023/05/05 02:04:21;;;;;;;;;13.67;13.00;;;;;9.08;95.50;99996.63;6309841;20;3538948;-57
2023/05/05 02:06:51;;;;;;;;;16.50;11.00;;;;;9.11;94.53;99995.59;6312883;20;2821105;-58
2023/05/05 02:09:20;;;;;;;;;13.33;11.33;;;;;8.80;95.35;99997.16;6284479;20;3526323;-57
2023/05/05 02:11:49;;;;;;;;;14.00;13.00;;;;;8.89;96.67;99990.47;6311115;20;3533589;-57
2023/05/05 02:14:20;;;;;;;;;18.67;12.83;;;;;8.66;97.50;99994.25;6334708;20;2834648;-56
2023/05/05 02:16:50;;;;;;;;;13.00;12.00;;;;;8.73;97.73;99990.34;6314889;20;2812851;-55
2023/05/05 02:19:19;;;;;;;;;17.00;13.50;;;;;8.82;97.31;99995.28;6284653;20;2821112;-55
2023/05/05 02:21:46;;;;;;;;;16.50;16.50;;;;;8.59;97.05;99996.38;6287444;20;2813938;-56
2023/05/05 02:24:15;;;;;;;;;14.67;14.67;;;;;8.94;96.65;99993.78;6284168;20;3528411;-56
2023/05/05 02:26:45;;;;;;;;;15.00;14.00;;;;;8.63;97.24;99981.03;6314862;20;2811785;-57
2023/05/05 02:29:21;;;;;;;;;15.00;15.00;;;;;8.52;97.83;99990.44;6283749;20;3540933;-56
2023/05/05 02:31:54;;;;;;;;;14.00;13.00;;;;;8.49;98.04;99982.56;6309015;20;3538778;-57
2023/05/05 02:34:26;;;;;;;;;17.00;13.00;;;;;8.34;98.52;99983.28;6317068;20;2813916;-55
2023/05/05 02:36:57;;;;;;;;;20.50;18.00;;;;;8.25;98.57;99989.06;6281885;20;2821174;-57
2023/05/05 02:39:34;;;;;;;;;13.33;13.33;;;;;8.40;97.59;99991.06;6281306;20;2795071;-54
2023/05/05 02:42:04;;;;;;;;;13.33;12.67;;;;;8.50;95.00;99986.09;6311512;20;3541980;-55
2023/05/05 02:44:35;;;;;;;;;15.60;14.60;;;;;8.28;95.58;99994.28;6339075;20;2808660;-57
2023/05/05 02:47:06;;;;;;;;;14.00;12.00;;;;;8.49;95.93;99993.28;6278675;20;3513907;-54
2023/05/05 02:49:34;;;;;;;;;15.33;13.33;;;;;8.29;95.23;99999.56;6311782;20;3528404;-55
2023/05/05 02:52:01;;;;;;;;;15.00;11.00;;;;;8.06;96.30;100003.31;6317029;20;2796264;-55
2023/05/05 02:54:31;;;;;;;;;16.00;13.00;;;;;7.93;97.72;99999.47;6285443;20;2823185;-56
2023/05/05 02:57:00;;;;;;;;;20.00;15.67;;;;;8.32;96.14;99995.84;6280322;20;3546158;-56
2023/05/05 03:00:11;;;;;;;;;13.00;13.00;;;;;8.45;96.46;99997.06;6315639;20;2806627;-56
2023/05/05 03:03:03;;;;;;;;;13.33;13.33;;;;;8.68;95.23;99998.59;6284119;20;2786738;-54
2023/05/05 03:05:44;;;;;;;;;17.00;13.33;;;;;8.61;96.94;100001.66;6311663;20;3539876;-56
2023/05/05 03:08:59;;;;;;;;;12.33;12.33;;;;;8.44;96.71;99995.31;6312188;20;3539072;-57
2023/05/05 03:11:35;;;;;;;;;14.00;14.00;;;;;8.35;98.24;99995.72;6310714;20;2797150;-55
2023/05/05 03:14:09;;;;;;;;;13.33;13.33;;;;;8.23;98.80;100007.00;6277237;20;2808727;-57
2023/05/05 03:16:41;;;;;;;;;20.67;17.33;;;;;8.23;99.32;100001.66;6309947;20;3559829;-57
2023/05/05 03:19:14;;;;;;;;;17.00;14.67;;;;;8.42;98.78;100010.56;6311490;20;3539873;-54
2023/05/05 03:21:41;;;;;;;;;12.00;12.00;;;;;8.32;97.71;100003.88;6284079;20;2809734;-57
2023/05/05 03:24:16;;;;;;;;;16.33;12.67;;;;;8.18;99.01;100009.00;6277964;20;3542936;-56
2023/05/05 03:26:45;;;;;;;;;16.00;13.00;;;;;8.18;99.66;100001.00;6314189;20;2814877;-55
2023/05/05 03:29:14;;;;;;;;;11.50;11.50;;;;;8.08;99.94;99996.09;6286496;20;2812933;-56
2023/05/05 03:31:41;;;;;;;;;15.00;15.00;;;;;8.31;98.44;100004.81;6281962;20;2801318;-56
2023/05/05 03:34:09;;;;;;;;;19.67;14.67;;;;;7.99;98.60;100003.66;6283123;20;3546217;-55
2023/05/05 03:36:38;;;;;;;;;15.00;11.67;;;;;8.04;97.93;100013.19;6278635;20;2812769;-55
2023/05/05 03:39:07;;;;;;;;;17.33;15.33;;;;;7.97;98.18;100006.38;6310405;20;3553453;-56
2023/05/05 03:41:34;;;;;;;;;15.00;14.00;;;;;8.03;96.71;100008.78;6312930;20;2816949;-54
2023/05/05 03:44:03;;;;;;;;;18.33;15.33;;;;;8.02;96.55;100003.50;6278560;20;3533645;-55
2023/05/05 03:46:31;;;;;;;;;19.00;13.00;;;;;8.38;95.47;100016.97;6309875;20;3543015;-57
2023/05/05 03:48:58;;;;;;;;;18.00;14.00;;;;;8.19;95.27;100010.72;6310437;20;2814929;-55
2023/05/05 03:51:26;;;;;;;;;19.33;17.67;;;;;8.43;96.01;100017.66;6278759;20;3555543;-55
2023/05/05 03:53:55;;;;;;;;;18.00;16.67;;;;;8.29;96.11;100012.03;6280146;20;3552368;-53
2023/05/05 03:56:23;;;;;;;;;16.67;15.67;;;;;8.31;97.04;100020.88;6278597;20;3533625;-53
2023/05/05 03:58:51;;;;;;;;;19.00;15.33;;;;;8.64;95.88;100020.25;6278072;20;3543008;-54
2023/05/05 04:01:19;;;;;;;;;18.00;18.00;;;;;8.68;95.34;100016.47;6281420;20;3566884;-55
2023/05/05 04:03:48;;;;;;;;;15.67;13.67;;;;;9.09;94.39;100024.28;6312955;20;3546081;-57
2023/05/05 04:06:15;;;;;;;;;21.00;15.00;;;;;8.95;94.95;100027.63;6309621;20;2821136;-57
2023/05/05 04:08:42;;;;;;;;;17.00;17.00;;;;;9.24;94.29;100028.84;6280935;20;2500348;-57
2023/05/05 04:11:10;;;;;;;;;25.00;19.00;;;;;9.32;94.39;100034.72;6280235;20;2491990;-56
2023/05/05 04:13:37;;;;;;;;;24.50;19.50;;;;;9.78;92.51;100034.16;6279090;20;2489877;-57
2023/05/05 04:16:05;;;;;;;;;19.00;19.00;;;;;11.08;84.77;100037.69;6283289;20;2837804;-57
2023/05/05 04:18:32;;;;;;;;;18.50;15.50;;;;;10.62;85.96;100034.09;6281507;20;2500298;-57
2023/05/05 04:21:00;;;;;;;;;17.33;17.33;;;;;10.46;88.06;100036.75;6279927;20;3560713;-57
2023/05/05 04:23:28;;;;;;;;;16.50;16.50;;;;;10.97;85.96;100037.44;6279340;20;2494167;-58
2023/05/05 04:25:55;;;;;;;;;19.00;19.00;;;;;12.61;78.41;100045.44;6279532;20;2496641;-57
2023/05/05 04:28:23;;;;;;;;;20.50;19.00;;;;;12.00;78.77;100047.47;6281903;20;2500313;-57
2023/05/05 04:30:51;;;;;;;;;24.00;24.00;;;;;12.18;78.28;100045.47;6278186;20;2854445;-58
2023/05/05 04:33:19;;;;;;;;;22.50;21.50;;;;;11.82;82.17;100046.75;6278549;20;2845588;-58
2023/05/05 04:35:47;;;;;;;;;15.50;15.50;;;;;12.02;81.15;100049.13;6279024;20;2494042;-58
2023/05/05 04:38:14;;;;;;;;;12.50;12.00;;;;;13.39;76.19;100051.97;6280009;20;2784793;-53
2023/05/05 04:40:42;;;;;;;;;14.67;13.33;;;;;16.42;63.58;100057.66;6279380;20;3523169;-56
2023/05/05 04:43:10;;;;;;;;;12.00;12.00;;;;;17.39;57.25;100067.91;6274516;20;3527366;-55
2023/05/05 04:45:38;;;;;;;;;14.00;11.50;;;;;17.54;56.35;100066.63;6308980;20;2795186;-55
2023/05/05 04:48:06;;;;;;;;;11.33;10.33;;;;;17.28;56.97;100066.97;6279554;20;3510712;-53
2023/05/05 04:50:34;;;;;;;;;11.00;11.00;;;;;15.40;63.73;100069.19;6309953;20;3536742;-56
2023/05/05 04:53:02;;;;;;;;;11.67;11.67;;;;;14.75;68.42;100070.44;6311151;20;3510674;-54
2023/05/05 04:55:30;;;;;;;;;12.33;12.33;;;;;14.24;71.63;100074.03;6306419;20;2801438;-54
2023/05/05 04:57:58;;;;;;;;;14.00;13.00;;;;;13.06;77.44;100062.28;6307875;20;3535706;-53
2023/05/05 05:00:26;;;;;;;;;11.33;11.00;;;;;12.61;79.30;100061.59;6308337;20;2792230;-54
2023/05/05 05:02:54;;;;;;;;;11.50;11.50;;;;;12.47;80.71;100068.75;6311894;20;2794022;-51
2023/05/05 05:05:23;;;;;;;;;12.33;12.00;;;;;12.89;79.37;100066.09;6280920;20;3511716;-53
2023/05/05 05:07:51;;;;;;;;;14.00;13.00;;;;;13.21;78.84;100066.66;6311935;20;3529421;-52
2023/05/05 05:10:19;;;;;;;;;14.67;13.00;;;;;13.69;75.17;100071.56;6307021;20;2800446;-52
2023/05/05 05:12:47;;;;;;;;;15.00;13.00;;;;;13.56;75.35;100066.16;6313866;20;2796130;-52
2023/05/05 05:15:15;;;;;;;;;11.00;11.00;;;;;14.42;72.66;100065.56;6281823;20;2793129;-55
2023/05/05 05:17:43;;;;;;;;;12.00;10.00;;;;;15.34;65.24;100080.50;6310689;20;2790985;-53
2023/05/05 05:20:11;;;;;;;;;10.50;10.50;;;;;15.62;63.59;100078.41;6310699;20;2789884;-56
2023/05/05 05:22:38;;;;;;;;;11.67;11.67;;;;;16.68;61.25;100085.41;6291622;20;1809866;-56
2023/05/05 05:25:06;;;;;;;;;14.00;12.00;;;;;15.89;61.89;100083.59;6274969;20;2799346;-52
2023/05/05 05:27:35;;;;;;;;;11.00;11.00;;;;;14.94;66.74;100078.06;6309786;20;3512847;-56
2023/05/05 05:30:03;;;;;;;;;13.33;11.00;;;;;14.88;65.62;100083.91;6309914;20;3511816;-53
2023/05/05 05:32:31;;;;;;;;;15.00;14.67;;;;;15.39;65.16;100089.13;6308749;20;3539882;-55
2023/05/05 05:35:00;;;;;;;;;16.67;14.67;;;;;15.74;61.30;100097.31;6280373;20;3530555;-56
2023/05/05 05:37:29;;;;;;;;;16.67;13.33;;;;;14.99;66.90;100100.22;6309957;20;3520068;-53
2023/05/05 05:39:57;;;;;;;;;14.33;14.00;;;;;14.67;67.77;100102.56;6307091;20;3526376;-52
2023/05/05 05:42:25;;;;;;;;;12.50;12.50;;;;;14.15;71.72;100104.38;6313320;20;2802410;-50
2023/05/05 05:44:53;;;;;;;;;12.00;9.67;;;;;14.95;68.10;100101.41;6279356;20;2780644;-53
2023/05/05 05:47:20;;;;;;;;;14.00;12.00;;;;;15.34;66.52;100102.13;6315938;20;2810732;-54
2023/05/05 05:49:47;;;;;;;;;14.00;11.50;;;;;15.10;66.39;100104.81;6284062;20;2797155;-55
2023/05/05 05:52:16;;;;;;;;;14.00;11.67;;;;;15.69;65.73;100102.22;6280984;20;3515922;-50
2023/05/05 05:54:43;;;;;;;;;12.00;11.00;;;;;15.81;62.05;100105.84;6288530;20;2793115;-54
2023/05/05 05:57:10;;;;;;;;;13.00;11.00;;;;;15.45;65.08;100104.03;6283985;20;2650286;-55
2023/05/05 05:59:38;;;;;;;;;13.00;13.00;;;;;16.05;63.21;100107.63;6285661;20;2500232;-54
2023/05/05 06:02:06;;;;;;;;;13.67;13.00;;;;;16.91;59.54;100112.56;6285700;20;3519060;-52
2023/05/05 06:04:35;;;;;;;;;11.00;10.67;;;;;17.60;57.28;100104.13;6316152;20;3514850;-52
2023/05/05 06:07:02;;;;;;;;;12.00;12.00;;;;;16.90;57.95;100099.97;6309753;20;2786792;-54
2023/05/05 06:09:29;;;;;;;;;11.00;10.50;;;;;16.45;59.21;100103.50;6288993;20;2785688;-49
2023/05/05 06:11:57;;;;;;;;;9.00;8.00;;;;;16.22;58.79;100093.66;6290915;20;2742086;-53
2023/05/05 06:14:24;;;;;;;;;13.50;10.00;;;;;15.92;59.79;100094.16;6288245;20;2785731;-54
2023/05/05 06:16:51;;;;;;;;;11.50;11.50;;;;;16.04;60.95;100093.22;6288799;20;2810696;-49
2023/05/05 06:19:19;;;;;;;;;8.00;8.00;;;;;15.99;58.43;100103.56;6291406;20;2740247;-48
2023/05/05 06:21:48;;;;;;;;;7.00;7.00;;;;;15.94;57.90;100100.34;6315912;20;2736757;-54
2023/05/05 06:24:17;;;;;;;;;9.00;9.00;;;;;16.19;57.32;100100.16;6342232;20;2750306;-52
2023/05/05 06:26:44;;;;;;;;;9.50;9.50;;;;;16.20;56.81;100103.72;6316467;20;2771115;-55
2023/05/05 06:29:11;;;;;;;;;7.00;7.00;;;;;16.51;56.15;100109.41;6291804;20;2738820;-56
2023/05/05 06:31:39;;;;;;;;;8.00;8.00;;;;;16.62;55.07;100112.16;6287263;20;2751312;-51
2023/05/05 06:34:06;;;;;;;;;10.00;9.00;;;;;16.43;56.42;100110.91;6286443;20;2774276;-54
2023/05/05 06:36:34;;;;;;;;;9.00;8.33;;;;;17.34;53.03;100104.44;6283543;20;2752350;-59
2023/05/05 06:39:03;;;;;;;;;11.60;10.00;;;;;19.99;48.40;100116.53;6342490;20;2793068;-57
2023/05/05 06:41:32;;;;;;;;;9.20;8.80;;;;;20.24;46.30;100118.63;6314282;20;2750300;-53
2023/05/05 06:44:01;;;;;;;;;14.00;8.33;;;;;20.12;45.80;100125.28;6284997;20;2769212;-55
2023/05/05 06:46:30;;;;;;;;;8.80;8.80;;;;;19.01;48.07;100118.19;6341154;20;2741941;-60
2023/05/05 06:48:57;;;;;;;;;12.50;11.00;;;;;19.69;48.25;100124.69;6318567;20;2794036;-58
2023/05/05 06:51:26;;;;;;;;;12.33;9.67;;;;;19.74;49.39;100121.53;6285666;20;2790971;-56
2023/05/05 06:53:54;;;;;;;;;9.67;6.67;;;;;19.70;49.56;100129.16;6312776;20;3471314;-57
2023/05/05 06:56:22;;;;;;;;;11.00;11.00;;;;;20.38;46.89;100131.84;6311221;20;2792102;-58
2023/05/05 06:58:50;;;;;;;;;12.00;10.00;;;;;20.63;46.69;100139.56;6317682;20;3505563;-58
2023/05/05 07:01:19;;;;;;;;;12.00;9.67;;;;;19.85;47.25;100129.59;6312276;20;2787892;-56
2023/05/05 07:03:47;;;;;;;;;8.00;7.00;;;;;19.86;46.95;100125.84;6323231;20;2752440;-58
2023/05/05 07:06:15;;;;;;;;;9.00;9.00;;;;;20.17;47.89;100128.44;6308746;20;2762792;-58
2023/05/05 07:08:44;;;;;;;;;9.40;8.20;;;;;20.51;46.68;100128.78;6333138;20;2753510;-55
2023/05/05 07:11:13;;;;;;;;;10.20;8.60;;;;;20.11;47.68;100123.53;6311283;20;2769023;-56
2023/05/05 07:13:42;;;;;;;;;8.60;8.60;;;;;20.10;46.96;100117.22;6311902;20;2744074;-55
2023/05/05 07:16:10;;;;;;;;;10.67;10.33;;;;;20.20;46.83;100117.22;6320709;20;2793995;-57
2023/05/05 07:18:38;;;;;;;;;8.00;8.00;;;;;20.48;47.94;100122.75;6325367;20;2752466;-53
2023/05/05 07:21:06;;;;;;;;;10.67;9.67;;;;;20.41;46.72;100118.91;6317617;20;2774337;-57
2023/05/05 07:23:36;;;;;;;;;10.67;8.67;;;;;20.77;45.41;100115.38;6321625;20;2766983;-55
2023/05/05 07:26:04;;;;;;;;;10.00;8.67;;;;;20.71;45.47;100115.97;6307839;20;2764862;-54
2023/05/05 07:28:33;;;;;;;;;9.67;9.67;;;;;20.55;46.84;100116.59;6317452;20;2781656;-54
2023/05/05 07:31:01;;;;;;;;;12.67;12.00;;;;;21.21;45.30;100109.28;6310642;20;3525292;-56
2023/05/05 07:33:30;;;;;;;;;10.20;8.60;;;;;21.45;44.31;100109.56;6341688;20;2762807;-52
2023/05/05 07:35:58;;;;;;;;;9.00;9.00;;;;;20.56;45.45;100114.72;6283624;20;2750409;-56
2023/05/05 07:38:27;;;;;;;;;10.00;9.00;;;;;20.32;46.38;100112.47;6342030;20;2772224;-53
2023/05/05 07:40:56;;;;;;;;;11.00;8.60;;;;;20.52;45.91;100107.81;6311677;20;2770215;-55
2023/05/05 07:43:24;;;;;;;;;8.50;8.50;;;;;20.45;46.53;100109.41;6285125;20;2748292;-57
2023/05/05 07:45:53;;;;;;;;;11.33;9.00;;;;;20.32;47.23;100115.19;6283958;20;2771140;-55
2023/05/05 07:48:21;;;;;;;;;9.67;9.67;;;;;19.93;47.09;100113.38;6314907;20;2783704;-49
2023/05/05 07:50:49;;;;;;;;;10.00;10.00;;;;;20.18;46.51;100114.63;6314327;20;2794199;-58
2023/05/05 07:53:17;;;;;;;;;12.00;9.00;;;;;20.62;46.63;100116.88;6313020;20;2774462;-58
2023/05/05 07:55:45;;;;;;;;;9.33;8.67;;;;;21.18;45.00;100113.16;6312186;20;2755570;-56
2023/05/05 07:58:15;;;;;;;;;11.60;8.00;;;;;21.46;43.71;100111.31;6341573;20;2769021;-54
2023/05/05 08:00:42;;;;;;;;;9.00;9.00;;;;;21.67;46.70;100111.00;6294147;20;2745083;-56
2023/05/05 08:03:10;;;;;;;;;9.67;9.67;;;;;21.45;46.44;100108.72;6296605;20;2772293;-54
2023/05/05 08:05:39;;;;;;;;;11.00;9.33;;;;;21.73;46.07;100105.94;6320537;20;2776355;-58
2023/05/05 08:08:07;;;;;;;;;10.00;9.00;;;;;20.74;45.25;100104.75;6323551;20;2768060;-58
2023/05/05 08:10:35;;;;;;;;;11.00;9.67;;;;;21.21;45.30;100104.66;6313357;20;3507696;-57
2023/05/05 08:13:04;;;;;;;;;8.60;8.60;;;;;21.09;47.58;100092.25;6339313;20;2750252;-55
2023/05/05 08:15:33;;;;;;;;;11.00;9.33;;;;;21.52;45.85;100098.03;6282120;20;3505585;-54
2023/05/05 08:18:00;;;;;;;;;10.00;10.00;;;;;22.38;43.88;100101.03;6319064;20;2789860;-57
2023/05/05 08:20:29;;;;;;;;;11.00;10.00;;;;;21.91;43.62;100102.19;6321706;20;2794071;-53
2023/05/05 08:22:57;;;;;;;;;12.00;10.00;;;;;21.54;44.44;100104.19;6314651;20;3517030;-55
2023/05/05 08:25:25;;;;;;;;;9.67;9.67;;;;;21.34;45.31;100100.72;6318878;20;2785686;-57
2023/05/05 08:27:53;;;;;;;;;9.00;9.00;;;;;21.98;44.97;100107.84;6313205;20;2758633;-56
2023/05/05 08:30:21;;;;;;;;;11.67;9.33;;;;;21.79;45.13;100102.56;6313382;20;2778420;-57
2023/05/05 08:32:50;;;;;;;;;7.33;6.00;;;;;21.84;45.49;100108.44;6324728;20;2742989;-58
2023/05/05 08:35:18;;;;;;;;;11.33;10.33;;;;;22.05;44.94;100103.47;6310280;20;3515929;-57
2023/05/05 08:37:46;;;;;;;;;10.00;10.00;;;;;21.99;44.44;100106.88;6315639;20;2780555;-59
2023/05/05 08:40:14;;;;;;;;;9.67;9.67;;;;;21.57;45.09;100107.50;6315396;20;2766948;-54
2023/05/05 08:42:44;;;;;;;;;10.33;9.00;;;;;21.65;45.55;100102.09;6321819;20;2766371;-58
2023/05/05 08:45:12;;;;;;;;;11.00;10.67;;;;;21.52;44.83;100104.38;6316797;20;2789897;-58
2023/05/05 08:47:42;;;;;;;;;10.40;8.00;;;;;21.32;46.68;100109.06;6341832;20;2773275;-58
2023/05/05 08:50:10;;;;;;;;;9.00;9.00;;;;;21.44;45.79;100101.53;6289108;20;2752407;-58
2023/05/05 08:52:44;;;;;;;;;9.00;9.00;;;;;22.16;44.94;100102.38;6338516;20;2760864;-56
2023/05/05 08:55:19;;;;;;;;;12.00;12.00;;;;;21.61;46.17;100105.28;6283379;20;2794052;-56
2023/05/05 08:57:55;;;;;;;;;11.00;9.33;;;;;21.88;44.73;100098.88;6314726;20;2778431;-57
2023/05/05 09:00:25;;;;;;;;;10.67;10.33;;;;;21.97;45.60;100100.69;6314597;20;3518445;-59
2023/05/05 09:02:57;;;;;;;;;10.00;9.00;;;;;21.96;46.10;100095.38;6312669;20;2764878;-57
2023/05/05 09:05:26;;;;;;;;;10.00;10.00;;;;;22.05;45.14;100098.00;6314655;20;3520186;-59
2023/05/05 09:07:54;;;;;;;;;8.00;7.00;;;;;22.33;44.01;100087.84;6314045;20;2742004;-58
2023/05/05 09:10:23;;;;;;;;;13.33;10.67;;;;;22.33;44.42;100084.25;6318611;20;2783674;-60
2023/05/05 09:12:51;;;;;;;;;11.67;10.00;;;;;22.52;43.69;100086.75;6318177;20;2788828;-58
2023/05/05 09:15:19;;;;;;;;;8.67;8.00;;;;;22.32;44.67;100077.03;6313071;20;2750314;-59
2023/05/05 09:17:47;;;;;;;;;11.00;11.00;;;;;22.49;44.84;100083.50;6313565;20;2789344;-59
2023/05/05 09:20:15;;;;;;;;;11.33;9.00;;;;;23.32;45.23;100075.47;6321111;20;2768068;-59
2023/05/05 09:22:46;;;;;;;;;10.80;10.00;;;;;23.48;43.85;100082.88;6339449;20;2787781;-58
2023/05/05 09:25:17;;;;;;;;;9.00;8.00;;;;;22.77;44.11;100070.47;6281670;20;2756621;-58
2023/05/05 09:27:48;;;;;;;;;10.00;9.67;;;;;23.51;44.31;100068.00;6319448;20;2783624;-59
2023/05/05 09:30:23;;;;;;;;;10.00;10.00;;;;;23.49;44.10;100073.66;6322310;20;2776324;-56
2023/05/05 09:32:54;;;;;;;;;9.80;9.80;;;;;22.79;45.02;100060.22;6346923;20;2788811;-58
2023/05/05 09:35:22;;;;;;;;;10.67;10.67;;;;;22.50;44.24;100061.44;6286418;20;3516317;-59
2023/05/05 09:37:50;;;;;;;;;9.33;9.33;;;;;22.82;44.31;100061.75;6327907;20;2773284;-60
2023/05/05 09:40:21;;;;;;;;;13.00;12.00;;;;;22.87;45.52;100065.72;6320797;20;3509777;-58
2023/05/05 09:43:01;;;;;;;;;11.33;9.00;;;;;22.94;45.04;100063.19;6321765;20;2766973;-58
2023/05/05 09:45:29;;;;;;;;;12.33;9.00;;;;;23.04;45.04;100050.25;6317115;20;3491936;-59
2023/05/05 09:47:58;;;;;;;;;11.00;10.00;;;;;22.82;45.54;100053.53;6317657;20;3510771;-58
2023/05/05 09:50:29;;;;;;;;;10.00;10.00;;;;;23.13;43.64;100056.59;6316974;20;3500270;-58
2023/05/05 09:53:00;;;;;;;;;12.67;11.67;;;;;23.16;45.88;100056.28;6318866;20;2483676;-58
2023/05/05 09:55:32;;;;;;;;;10.00;10.00;;;;;23.30;44.33;100063.84;6320952;20;2791965;-56
2023/05/05 09:58:28;;;;;;;;;10.00;10.00;;;;;23.96;44.84;100058.44;6316724;20;2778490;-58
2023/05/05 10:00:57;;;;;;;;;11.00;11.00;;;;;23.75;43.51;100057.09;6317202;20;2787838;-59
2023/05/05 10:03:25;;;;;;;;;11.67;9.67;;;;;23.33;43.37;100051.69;6318048;20;2781518;-59
2023/05/05 10:05:57;;;;;;;;;9.67;9.67;;;;;22.57;44.86;100045.22;6319990;20;2777751;-58
2023/05/05 10:08:32;;;;;;;;;11.00;9.33;;;;;23.83;44.41;100048.88;6324283;20;2781632;-58
2023/05/05 10:11:03;;;;;;;;;15.67;12.00;;;;;24.23;44.53;100049.88;6316485;20;3525315;-58
2023/05/05 10:13:36;;;;;;;;;8.67;8.67;;;;;24.55;41.69;100050.00;6316505;20;2739927;-58
2023/05/05 10:16:08;;;;;;;;;10.00;10.00;;;;;23.09;44.64;100036.91;6316881;20;3516023;-59
2023/05/05 10:18:45;;;;;;;;;9.00;9.00;;;;;24.14;42.98;100042.66;6310442;20;2760743;-57
2023/05/05 10:21:20;;;;;;;;;9.00;9.00;;;;;23.97;43.02;100044.56;6311152;20;1848197;-56
2023/05/05 10:23:56;;;;;;;;;11.00;10.00;;;;;23.69;43.16;100035.78;6293049;20;2788860;-57
2023/05/05 10:26:27;;;;;;;;;7.40;6.40;;;;;23.90;41.48;100027.09;6340332;20;2735720;-58
2023/05/05 10:29:00;;;;;;;;;8.40;8.40;;;;;24.01;42.14;100028.63;6342030;20;2750316;-57
2023/05/05 10:31:52;;;;;;;;;9.33;8.33;;;;;24.08;42.09;100021.41;6291882;20;2764900;-58
2023/05/05 10:34:47;;;;;;;;;9.80;8.80;;;;;24.56;42.80;100025.09;6340662;20;2775323;-59
2023/05/05 10:37:19;;;;;;;;;6.40;6.40;;;;;24.41;40.44;100029.56;6313976;20;2729495;-58
2023/05/05 10:39:50;;;;;;;;;12.00;11.00;;;;;23.61;40.91;100022.94;6340771;20;2789981;-58
2023/05/05 10:42:20;;;;;;;;;9.00;9.00;;;;;24.00;41.07;100026.91;6311547;20;2748335;-58
2023/05/05 10:44:48;;;;;;;;;7.00;7.00;;;;;24.19;42.29;100020.19;6286973;20;2752385;-58
2023/05/05 10:47:18;;;;;;;;;11.00;8.00;;;;;23.78;41.58;100023.00;6317419;20;2775310;-58
2023/05/05 10:50:06;;;;;;;;;10.00;10.00;;;;;23.93;41.30;100020.41;6339872;20;2791981;-57
2023/05/05 10:53:17;;;;;;;;;8.60;8.60;;;;;24.36;40.32;100021.03;6312212;20;2748346;-59
2023/05/05 10:56:16;;;;;;;;;9.00;6.60;;;;;24.23;40.36;100016.94;6307869;20;2749240;-58
2023/05/05 10:58:44;;;;;;;;;9.00;8.00;;;;;23.81;40.65;100015.28;6291496;20;2752359;-57
2023/05/05 11:01:33;;;;;;;;;7.20;7.00;;;;;23.45;40.33;100007.34;6345374;20;2737815;-56
2023/05/05 11:04:22;;;;;;;;;9.00;9.00;;;;;24.26;39.25;100002.88;6287062;20;2750324;-59
2023/05/05 11:07:08;;;;;;;;;8.33;7.67;;;;;23.07;39.74;99997.03;6316081;20;2748210;-59
2023/05/05 11:10:01;;;;;;;;;9.33;7.33;;;;;24.50;38.85;99999.22;6314519;20;2757624;-58
2023/05/05 11:12:31;;;;;;;;;6.67;6.67;;;;;24.44;38.57;99996.31;6317181;20;2748235;-58
2023/05/05 11:15:36;;;;;;;;;8.00;7.00;;;;;23.02;40.23;99985.72;6322426;20;2750387;-61
2023/05/05 11:18:05;;;;;;;;;9.00;9.00;;;;;23.37;40.64;99982.66;6318273;20;2744006;-57
2023/05/05 11:20:38;;;;;;;;;7.20;7.20;;;;;23.88;38.09;99983.41;6342366;20;2752339;-57